Rumpus Ridge, South Dakota
Current Conditions -  °F | °C
As of 9:56 AM on Wednesday 22 Oct 2014 (Local Time) from KFSD Reporting Station
Scattered Clouds Scattered Clouds  
Wind Chill: 57°   Ceiling: Unl
Heat Index: 57°   Visibility: 10mi
Dew Point: 46°   Wind: 18mph
Humidity: 67%   Direction: 170°S
Pressure: 29.98"   Gusts: 24mph
Location:  43.5855°N, 97.3085°W
Report Text: KFSD 221456Z 17016G21KT 10SM SCT200 14/08 A2998 RMK AO2 SLP153 T01390078 56006
Loading
Personal Weather Stations






























Interactive Weather Map New forecast layout! Learn more

10-Day Weather Forecast

Advertisements
Track Severe Weather on mobile